sensor_id;sensor_type;location;lat;lon;timestamp;P1;durP1;ratioP1;P2;durP2;ratioP2
23236;SDS011;11787;52.018;8.570;2022-09-09T06:51:05;7.25;;;1.40;;
23236;SDS011;11787;52.018;8.570;2022-09-09T06:53:32;7.55;;;1.60;;
23236;SDS011;11787;52.018;8.570;2022-09-09T06:56:00;5.75;;;1.45;;
23236;SDS011;11787;52.018;8.570;2022-09-09T06:58:48;6.38;;;1.50;;
23236;SDS011;11787;52.018;8.570;2022-09-09T07:01:15;4.78;;;1.52;;
23236;SDS011;11787;52.018;8.570;2022-09-09T07:03:45;5.50;;;1.45;;
23236;SDS011;11787;52.018;8.570;2022-09-09T07:06:20;7.03;;;1.52;;
23236;SDS011;11787;52.018;8.570;2022-09-09T07:08:52;5.10;;;1.57;;
23236;SDS011;11787;52.018;8.570;2022-09-09T07:13:46;4.22;;;1.50;;
23236;SDS011;11787;52.018;8.570;2022-09-09T07:16:14;3.90;;;1.20;;
23236;SDS011;11787;52.018;8.570;2022-09-09T07:18:43;4.72;;;1.17;;
23236;SDS011;11787;52.018;8.570;2022-09-09T07:21:10;3.30;;;1.30;;
23236;SDS011;11787;52.018;8.570;2022-09-09T07:23:39;4.22;;;1.30;;
23236;SDS011;11787;52.018;8.570;2022-09-09T07:26:16;5.10;;;1.30;;
23236;SDS011;11787;52.018;8.570;2022-09-09T07:28:46;8.52;;;1.70;;
23236;SDS011;11787;52.018;8.570;2022-09-09T07:31:13;7.32;;;1.63;;
23236;SDS011;11787;52.018;8.570;2022-09-09T07:33:47;4.28;;;1.40;;
23236;SDS011;11787;52.018;8.570;2022-09-09T07:36:14;7.32;;;1.70;;
23236;SDS011;11787;52.018;8.570;2022-09-09T07:38:42;4.18;;;1.42;;
23236;SDS011;11787;52.018;8.570;2022-09-09T07:41:16;5.80;;;1.67;;
23236;SDS011;11787;52.018;8.570;2022-09-09T07:43:47;6.25;;;1.60;;
23236;SDS011;11787;52.018;8.570;2022-09-09T07:46:15;8.30;;;2.00;;
23236;SDS011;11787;52.018;8.570;2022-09-09T07:48:47;3.35;;;1.50;;
23236;SDS011;11787;52.018;8.570;2022-09-09T07:53:51;9.77;;;1.85;;
23236;SDS011;11787;52.018;8.570;2022-09-09T07:56:18;5.30;;;1.75;;
23236;SDS011;11787;52.018;8.570;2022-09-09T07:58:45;7.50;;;1.63;;
23236;SDS011;11787;52.018;8.570;2022-09-09T08:01:13;6.72;;;1.63;;
23236;SDS011;11787;52.018;8.570;2022-09-09T08:03:46;4.97;;;1.48;;
23236;SDS011;11787;52.018;8.570;2022-09-09T08:06:17;10.73;;;1.88;;
23236;SDS011;11787;52.018;8.570;2022-09-09T08:08:43;5.05;;;1.50;;
23236;SDS011;11787;52.018;8.570;2022-09-09T08:11:12;2.80;;;1.40;;
23236;SDS011;11787;52.018;8.570;2022-09-09T08:13:42;4.97;;;1.58;;
23236;SDS011;11787;52.018;8.570;2022-09-09T08:16:10;4.63;;;1.60;;
23236;SDS011;11787;52.018;8.570;2022-09-09T08:18:41;8.02;;;1.80;;
23236;SDS011;11787;52.018;8.570;2022-09-09T08:23:40;4.13;;;1.50;;
23236;SDS011;11787;52.018;8.570;2022-09-09T08:26:10;4.30;;;1.52;;
23236;SDS011;11787;52.018;8.570;2022-09-09T08:28:37;3.92;;;1.60;;
23236;SDS011;11787;52.018;8.570;2022-09-09T08:31:07;5.22;;;1.58;;
23236;SDS011;11787;52.018;8.570;2022-09-09T08:33:41;5.95;;;1.38;;
23236;SDS011;11787;52.018;8.570;2022-09-09T08:36:11;4.93;;;1.75;;
23236;SDS011;11787;52.018;8.570;2022-09-09T08:46:43;4.05;;;1.15;;
23236;SDS011;11787;52.018;8.570;2022-09-09T08:55:48;4.60;;;1.50;;
23236;SDS011;11787;52.018;8.570;2022-09-09T08:58:01;5.25;;;1.50;;
23236;SDS011;11787;52.018;8.570;2022-09-09T09:00:42;4.97;;;1.45;;
23236;SDS011;11787;52.018;8.570;2022-09-09T09:03:30;8.57;;;1.77;;
23236;SDS011;11787;52.018;8.570;2022-09-09T09:09:04;5.35;;;1.40;;
23236;SDS011;11787;52.018;8.570;2022-09-09T09:11:54;5.50;;;1.42;;
23236;SDS011;11787;52.018;8.570;2022-09-09T09:14:26;2.40;;;0.73;;
23236;SDS011;11787;52.018;8.570;2022-09-09T09:16:59;7.15;;;1.33;;
23236;SDS011;11787;52.018;8.570;2022-09-09T09:19:27;3.95;;;1.25;;
23236;SDS011;11787;52.018;8.570;2022-09-09T09:22:14;3.60;;;1.00;;
23236;SDS011;11787;52.018;8.570;2022-09-09T10:30:09;5.53;;;1.13;;
23236;SDS011;11787;52.018;8.570;2022-09-09T11:27:11;3.95;;;1.10;;
23236;SDS011;11787;52.018;8.570;2022-09-09T11:38:44;3.55;;;0.95;;
23236;SDS011;11787;52.018;8.570;2022-09-09T11:41:15;4.28;;;1.13;;
23236;SDS011;11787;52.018;8.570;2022-09-09T11:43:45;6.68;;;1.38;;
23236;SDS011;11787;52.018;8.570;2022-09-09T11:46:14;3.55;;;1.02;;
23236;SDS011;11787;52.018;8.570;2022-09-09T11:48:43;4.55;;;1.10;;
23236;SDS011;11787;52.018;8.570;2022-09-09T11:53:51;6.13;;;1.42;;
23236;SDS011;11787;52.018;8.570;2022-09-09T11:56:25;5.97;;;1.10;;
23236;SDS011;11787;52.018;8.570;2022-09-09T11:58:57;5.93;;;1.38;;
23236;SDS011;11787;52.018;8.570;2022-09-09T12:06:46;3.42;;;1.02;;
23236;SDS011;11787;52.018;8.570;2022-09-09T12:12:07;2.55;;;0.75;;
23236;SDS011;11787;52.018;8.570;2022-09-09T12:14:37;3.90;;;0.90;;
23236;SDS011;11787;52.018;8.570;2022-09-09T12:17:30;5.35;;;1.23;;
23236;SDS011;11787;52.018;8.570;2022-09-09T12:20:38;4.22;;;0.98;;
23236;SDS011;11787;52.018;8.570;2022-09-09T12:25:56;3.88;;;0.90;;
23236;SDS011;11787;52.018;8.570;2022-09-09T12:33:50;3.25;;;0.98;;
23236;SDS011;11787;52.018;8.570;2022-09-09T12:36:17;3.88;;;1.02;;
23236;SDS011;11787;52.018;8.570;2022-09-09T12:38:46;2.53;;;0.57;;
23236;SDS011;11787;52.018;8.570;2022-09-09T12:41:19;4.78;;;1.00;;
23236;SDS011;11787;52.018;8.570;2022-09-09T12:43:45;2.97;;;0.80;;
23236;SDS011;11787;52.018;8.570;2022-09-09T12:46:14;5.15;;;0.80;;
23236;SDS011;11787;52.018;8.570;2022-09-09T12:48:51;3.80;;;1.15;;
23236;SDS011;11787;52.018;8.570;2022-09-09T12:51:19;4.55;;;0.93;;
23236;SDS011;11787;52.018;8.570;2022-09-09T12:53:50;3.33;;;0.90;;
23236;SDS011;11787;52.018;8.570;2022-09-09T12:56:23;3.50;;;1.08;;
23236;SDS011;11787;52.018;8.570;2022-09-09T12:58:55;2.97;;;0.70;;
23236;SDS011;11787;52.018;8.570;2022-09-09T13:03:49;4.35;;;0.90;;
23236;SDS011;11787;52.018;8.570;2022-09-09T13:06:24;5.90;;;1.00;;
23236;SDS011;11787;52.018;8.570;2022-09-09T13:08:56;3.40;;;1.00;;
23236;SDS011;11787;52.018;8.570;2022-09-09T13:11:31;2.60;;;0.95;;
23236;SDS011;11787;52.018;8.570;2022-09-09T13:14:12;4.28;;;1.00;;
23236;SDS011;11787;52.018;8.570;2022-09-09T13:16:43;5.53;;;0.93;;
23236;SDS011;11787;52.018;8.570;2022-09-09T13:19:23;2.38;;;0.90;;
23236;SDS011;11787;52.018;8.570;2022-09-09T13:21:52;3.45;;;0.80;;
23236;SDS011;11787;52.018;8.570;2022-09-09T16:23:23;3.22;;;1.27;;
23236;SDS011;11787;52.018;8.570;2022-09-09T16:25:53;2.92;;;1.30;;
23236;SDS011;11787;52.018;8.570;2022-09-09T16:28:20;6.10;;;1.70;;
23236;SDS011;11787;52.018;8.570;2022-09-09T16:30:46;3.50;;;1.10;;
23236;SDS011;11787;52.018;8.570;2022-09-09T16:33:11;1.90;;;0.63;;
23236;SDS011;11787;52.018;8.570;2022-09-09T16:35:40;3.38;;;1.00;;
23236;SDS011;11787;52.018;8.570;2022-09-09T16:38:06;4.22;;;0.90;;
23236;SDS011;11787;52.018;8.570;2022-09-09T16:40:35;3.78;;;1.00;;
23236;SDS011;11787;52.018;8.570;2022-09-09T16:43:02;4.30;;;0.80;;
23236;SDS011;11787;52.018;8.570;2022-09-09T16:45:28;3.47;;;0.85;;
23236;SDS011;11787;52.018;8.570;2022-09-09T16:47:55;2.95;;;0.90;;
23236;SDS011;11787;52.018;8.570;2022-09-09T16:50:20;3.70;;;0.90;;
23236;SDS011;11787;52.018;8.570;2022-09-09T16:52:46;3.83;;;0.77;;
23236;SDS011;11787;52.018;8.570;2022-09-09T16:55:12;2.88;;;0.73;;
23236;SDS011;11787;52.018;8.570;2022-09-09T16:57:37;2.25;;;0.80;;
23236;SDS011;11787;52.018;8.570;2022-09-09T17:00:03;2.42;;;0.70;;
23236;SDS011;11787;52.018;8.570;2022-09-09T17:02:31;2.72;;;0.82;;
23236;SDS011;11787;52.018;8.570;2022-09-09T17:04:57;4.10;;;0.90;;
23236;SDS011;11787;52.018;8.570;2022-09-09T17:07:22;3.83;;;1.23;;
23236;SDS011;11787;52.018;8.570;2022-09-09T17:09:48;2.75;;;0.77;;
23236;SDS011;11787;52.018;8.570;2022-09-09T17:12:14;3.22;;;0.80;;
23236;SDS011;11787;52.018;8.570;2022-09-09T17:14:41;4.13;;;1.35;;
23236;SDS011;11787;52.018;8.570;2022-09-09T17:58:46;3.17;;;0.80;;
23236;SDS011;11787;52.018;8.570;2022-09-09T18:01:16;3.40;;;0.90;;
23236;SDS011;11787;52.018;8.570;2022-09-09T18:03:45;3.00;;;1.02;;
23236;SDS011;11787;52.018;8.570;2022-09-09T18:06:23;2.58;;;0.80;;
23236;SDS011;11787;52.018;8.570;2022-09-09T18:08:57;2.20;;;0.70;;
23236;SDS011;11787;52.018;8.570;2022-09-09T18:11:25;3.17;;;1.02;;
23236;SDS011;11787;52.018;8.570;2022-09-09T18:13:54;3.13;;;0.80;;
23236;SDS011;11787;52.018;8.570;2022-09-09T18:16:21;2.20;;;0.70;;
23236;SDS011;11787;52.018;8.570;2022-09-09T18:18:48;2.13;;;0.90;;
23236;SDS011;11787;52.018;8.570;2022-09-09T18:21:15;1.58;;;0.75;;
23236;SDS011;11787;52.018;8.570;2022-09-09T18:23:45;2.40;;;0.90;;
23236;SDS011;11787;52.018;8.570;2022-09-09T18:26:14;1.88;;;0.80;;
23236;SDS011;11787;52.018;8.570;2022-09-09T18:28:43;1.77;;;0.70;;
23236;SDS011;11787;52.018;8.570;2022-09-09T18:31:14;2.30;;;0.85;;
23236;SDS011;11787;52.018;8.570;2022-09-09T18:33:42;2.33;;;0.77;;
23236;SDS011;11787;52.018;8.570;2022-09-09T18:36:17;3.33;;;0.80;;
23236;SDS011;11787;52.018;8.570;2022-09-09T18:38:57;1.80;;;0.60;;
23236;SDS011;11787;52.018;8.570;2022-09-09T18:43:52;3.50;;;1.08;;
23236;SDS011;11787;52.018;8.570;2022-09-09T18:46:21;2.35;;;0.90;;
23236;SDS011;11787;52.018;8.570;2022-09-09T18:48:48;2.30;;;0.75;;
23236;SDS011;11787;52.018;8.570;2022-09-09T18:51:15;1.75;;;0.75;;
23236;SDS011;11787;52.018;8.570;2022-09-09T18:53:43;1.85;;;0.70;;
23236;SDS011;11787;52.018;8.570;2022-09-09T18:56:19;2.22;;;0.82;;
23236;SDS011;11787;52.018;8.570;2022-09-09T18:58:45;1.90;;;0.70;;
23236;SDS011;11787;52.018;8.570;2022-09-09T19:01:15;1.98;;;0.60;;
23236;SDS011;11787;52.018;8.570;2022-09-09T19:03:40;1.95;;;0.65;;
23236;SDS011;11787;52.018;8.570;2022-09-09T19:06:10;1.10;;;0.40;;
23236;SDS011;11787;52.018;8.570;2022-09-09T19:08:41;2.53;;;0.80;;
23236;SDS011;11787;52.018;8.570;2022-09-09T19:11:11;2.47;;;1.00;;
23236;SDS011;11787;52.018;8.570;2022-09-09T19:13:59;1.83;;;0.85;;
23236;SDS011;11787;52.018;8.570;2022-09-09T19:16:27;2.45;;;1.00;;
23236;SDS011;11787;52.018;8.570;2022-09-09T19:19:02;3.65;;;0.82;;
23236;SDS011;11787;52.018;8.570;2022-09-09T19:21:31;3.00;;;0.88;;
23236;SDS011;11787;52.018;8.570;2022-09-09T19:24:03;3.72;;;1.00;;
23236;SDS011;11787;52.018;8.570;2022-09-09T19:26:35;3.55;;;0.80;;
23236;SDS011;11787;52.018;8.570;2022-09-09T19:29:04;1.85;;;0.77;;
23236;SDS011;11787;52.018;8.570;2022-09-09T19:31:31;2.35;;;0.85;;
23236;SDS011;11787;52.018;8.570;2022-09-09T19:33:58;3.53;;;1.40;;
23236;SDS011;11787;52.018;8.570;2022-09-09T22:33:45;2.63;;;0.98;;
23236;SDS011;11787;52.018;8.570;2022-09-09T22:36:11;2.17;;;1.30;;
23236;SDS011;11787;52.018;8.570;2022-09-09T22:45:56;2.10;;;1.25;;
23236;SDS011;11787;52.018;8.570;2022-09-09T22:48:22;3.67;;;1.52;;
23236;SDS011;11787;52.018;8.570;2022-09-09T22:50:48;2.97;;;1.70;;
23236;SDS011;11787;52.018;8.570;2022-09-09T22:53:14;3.92;;;1.60;;
23236;SDS011;11787;52.018;8.570;2022-09-09T23:30:01;3.63;;;1.27;;
23236;SDS011;11787;52.018;8.570;2022-09-09T23:32:27;3.05;;;1.65;;
23236;SDS011;11787;52.018;8.570;2022-09-09T23:34:52;2.00;;;1.38;;
23236;SDS011;11787;52.018;8.570;2022-09-09T23:37:18;2.65;;;1.58;;
23236;SDS011;11787;52.018;8.570;2022-09-09T23:39:44;2.45;;;1.25;;
23236;SDS011;11787;52.018;8.570;2022-09-09T23:42:10;4.55;;;1.75;;
23236;SDS011;11787;52.018;8.570;2022-09-09T23:44:37;2.83;;;1.40;;
23236;SDS011;11787;52.018;8.570;2022-09-09T23:47:04;3.05;;;1.40;;
23236;SDS011;11787;52.018;8.570;2022-09-09T23:49:31;3.40;;;1.48;;
23236;SDS011;11787;52.018;8.570;2022-09-09T23:51:57;3.25;;;1.38;;
23236;SDS011;11787;52.018;8.570;2022-09-09T23:54:24;3.33;;;1.48;;
23236;SDS011;11787;52.018;8.570;2022-09-09T23:56:50;4.85;;;1.52;;
23236;SDS011;11787;52.018;8.570;2022-09-09T23:59:15;3.85;;;1.45;;
